createdAt,value
2017-08-06T00:01:05.839Z,3.20
2017-08-06T00:03:31.729Z,2.90
2017-08-06T00:05:57.925Z,3.83
2017-08-06T00:08:23.786Z,3.00
2017-08-06T00:10:49.664Z,2.83
2017-08-06T00:13:15.545Z,3.00
2017-08-06T00:15:41.406Z,3.70
2017-08-06T00:18:07.346Z,3.13
2017-08-06T00:20:33.267Z,3.40
2017-08-06T00:22:59.191Z,3.13
2017-08-06T00:25:25.079Z,4.10
2017-08-06T00:27:50.964Z,4.97
2017-08-06T00:30:16.772Z,5.20
2017-08-06T00:32:42.635Z,3.90
2017-08-06T00:35:08.482Z,4.00
2017-08-06T00:37:34.353Z,3.80
2017-08-06T00:40:00.259Z,3.80
2017-08-06T00:42:26.221Z,4.80
2017-08-06T00:44:52.116Z,4.10
2017-08-06T00:47:18.012Z,4.60
2017-08-06T00:49:43.908Z,4.23
2017-08-06T00:52:09.760Z,4.30
2017-08-06T00:54:35.650Z,3.63
2017-08-06T00:57:01.508Z,3.77
2017-08-06T00:59:27.387Z,3.30
2017-08-06T01:01:53.253Z,3.77
2017-08-06T01:04:19.185Z,3.10
2017-08-06T01:06:45.191Z,3.00
2017-08-06T01:09:11.033Z,3.33
2017-08-06T01:11:36.922Z,3.40
2017-08-06T01:14:02.782Z,2.80
2017-08-06T01:16:28.659Z,3.70
2017-08-06T01:18:54.542Z,3.13
2017-08-06T01:21:20.427Z,3.33
2017-08-06T01:23:46.308Z,2.60
2017-08-06T01:26:12.169Z,3.53
2017-08-06T01:28:38.073Z,3.50
2017-08-06T01:31:03.916Z,3.80
2017-08-06T01:33:29.799Z,3.33
2017-08-06T01:35:56.645Z,3.30
2017-08-06T01:38:22.528Z,3.03
2017-08-06T01:40:48.417Z,3.00
2017-08-06T01:43:14.275Z,3.57
2017-08-06T01:45:40.151Z,3.13
2017-08-06T01:48:06.036Z,3.47
2017-08-06T01:50:31.931Z,2.73
2017-08-06T01:52:57.818Z,3.50
2017-08-06T01:55:23.748Z,2.80
2017-08-06T01:57:49.610Z,3.23
2017-08-06T02:00:15.558Z,3.70
2017-08-06T02:02:41.422Z,3.10
2017-08-06T02:05:07.318Z,3.00
2017-08-06T02:07:33.202Z,3.47
2017-08-06T02:09:59.055Z,3.50
2017-08-06T02:12:25.171Z,3.23
2017-08-06T02:14:51.034Z,3.30
2017-08-06T02:17:16.938Z,3.20
2017-08-06T02:19:42.795Z,3.97
2017-08-06T02:22:08.659Z,3.80
2017-08-06T02:24:34.553Z,3.10
2017-08-06T02:27:00.412Z,3.10
2017-08-06T02:29:26.265Z,3.40
2017-08-06T02:31:52.110Z,3.10
2017-08-06T02:34:17.987Z,3.10
2017-08-06T02:36:43.813Z,3.63
2017-08-06T02:39:09.690Z,3.10
2017-08-06T02:41:35.542Z,3.10
2017-08-06T02:44:01.466Z,3.50
2017-08-06T02:46:27.363Z,3.10
2017-08-06T02:48:53.208Z,3.07
2017-08-06T02:51:19.036Z,3.37
2017-08-06T02:53:44.936Z,3.07
2017-08-06T02:56:10.829Z,3.80
2017-08-06T02:58:36.681Z,3.60
2017-08-06T03:01:02.571Z,3.60
2017-08-06T03:03:28.448Z,2.80
2017-08-06T03:05:54.712Z,3.30
2017-08-06T03:08:20.466Z,3.43
2017-08-06T03:10:46.307Z,3.00
2017-08-06T03:13:12.210Z,3.13
2017-08-06T03:15:38.056Z,3.37
2017-08-06T03:18:03.944Z,3.23
2017-08-06T03:20:29.812Z,3.83
2017-08-06T03:22:56.649Z,3.20
2017-08-06T03:25:22.526Z,3.30
2017-08-06T03:27:48.414Z,3.17
2017-08-06T03:30:14.391Z,3.17
2017-08-06T03:32:40.246Z,3.20
2017-08-06T03:35:06.622Z,2.83
2017-08-06T03:37:32.472Z,3.10
2017-08-06T03:39:58.358Z,3.03
2017-08-06T03:42:24.221Z,3.07
2017-08-06T03:44:50.062Z,3.20
2017-08-06T03:47:15.933Z,3.50
2017-08-06T03:49:43.009Z,3.37
2017-08-06T03:52:08.876Z,3.60
2017-08-06T03:54:34.769Z,3.30
2017-08-06T03:57:00.636Z,3.40
2017-08-06T03:59:26.525Z,2.90
2017-08-06T04:01:52.430Z,3.20
2017-08-06T04:04:18.383Z,3.10
2017-08-06T04:06:44.303Z,3.17
2017-08-06T04:09:10.161Z,2.93
2017-08-06T04:11:37.046Z,3.67
2017-08-06T04:14:02.900Z,2.97
2017-08-06T04:16:28.813Z,7.40
2017-08-06T04:18:54.727Z,3.83
2017-08-06T04:21:20.584Z,3.20
2017-08-06T04:23:46.436Z,3.77
2017-08-06T04:26:12.355Z,3.07
2017-08-06T04:28:38.226Z,3.13
2017-08-06T04:31:04.396Z,3.23
2017-08-06T04:33:30.276Z,3.10
2017-08-06T04:35:56.137Z,2.87
2017-08-06T04:38:22.038Z,3.20
2017-08-06T04:40:49.169Z,2.93
2017-08-06T04:43:15.087Z,3.70
2017-08-06T04:45:40.949Z,2.87
2017-08-06T04:48:06.836Z,3.03
2017-08-06T04:50:32.696Z,3.80
2017-08-06T04:52:58.561Z,2.80
2017-08-06T04:55:24.489Z,3.13
2017-08-06T04:57:50.318Z,3.40
2017-08-06T05:00:16.204Z,2.97
2017-08-06T05:02:42.069Z,3.00
2017-08-06T05:05:07.961Z,3.70
2017-08-06T05:07:33.829Z,3.10
2017-08-06T05:09:59.706Z,3.67
2017-08-06T05:12:25.566Z,3.17
2017-08-06T05:14:51.438Z,2.87
2017-08-06T05:17:17.269Z,2.90
2017-08-06T05:19:43.173Z,3.27
2017-08-06T05:22:09.103Z,3.57
2017-08-06T05:24:35.000Z,3.27
2017-08-06T05:27:00.887Z,3.60
2017-08-06T05:29:26.749Z,3.23
2017-08-06T05:31:52.650Z,3.67
2017-08-06T05:34:18.546Z,3.63
2017-08-06T05:36:44.395Z,3.87
2017-08-06T05:39:10.316Z,3.87
2017-08-06T05:41:36.237Z,3.87
2017-08-06T05:44:02.168Z,3.80
2017-08-06T05:46:28.039Z,3.70
2017-08-06T05:48:53.942Z,4.00
2017-08-06T05:51:19.819Z,3.77
2017-08-06T05:53:45.706Z,3.90
2017-08-06T05:56:11.577Z,4.13
2017-08-06T05:58:37.438Z,3.87
2017-08-06T06:01:03.326Z,3.70
2017-08-06T06:03:29.194Z,3.93
2017-08-06T06:05:55.099Z,3.90
2017-08-06T06:08:21.060Z,4.00
2017-08-06T06:10:46.956Z,3.70
2017-08-06T06:13:13.312Z,3.70
2017-08-06T06:15:39.183Z,4.00
2017-08-06T06:18:05.078Z,3.93
2017-08-06T06:20:30.948Z,3.87
2017-08-06T06:22:56.857Z,3.93
2017-08-06T06:25:22.743Z,4.37
2017-08-06T06:27:48.631Z,4.47
2017-08-06T06:30:14.503Z,3.40
2017-08-06T06:32:40.421Z,3.50
2017-08-06T06:35:06.306Z,3.03
2017-08-06T06:37:32.188Z,3.40
2017-08-06T06:39:58.158Z,2.97
2017-08-06T06:42:24.033Z,3.00
2017-08-06T06:44:49.899Z,3.20
2017-08-06T06:47:15.787Z,2.83
2017-08-06T06:49:41.865Z,3.07
2017-08-06T06:52:07.786Z,2.70
2017-08-06T06:54:33.913Z,2.50
2017-08-06T06:56:59.806Z,2.63
2017-08-06T06:59:25.684Z,2.60
2017-08-06T07:01:51.559Z,2.60
2017-08-06T07:04:17.452Z,2.50
2017-08-06T07:06:43.446Z,2.80
2017-08-06T07:09:09.359Z,2.67
2017-08-06T07:11:35.240Z,2.80
2017-08-06T07:14:01.087Z,3.00
2017-08-06T07:16:26.970Z,3.20
2017-08-06T07:18:52.858Z,2.93
2017-08-06T07:21:18.723Z,2.43
2017-08-06T07:23:44.591Z,2.63
2017-08-06T07:26:10.491Z,3.03
2017-08-06T07:28:36.364Z,2.57
2017-08-06T07:31:02.202Z,2.70
2017-08-06T07:33:28.074Z,2.77
2017-08-06T07:35:53.961Z,2.17
2017-08-06T07:38:19.873Z,2.60
2017-08-06T07:40:45.781Z,2.83
2017-08-06T07:43:11.661Z,2.60
2017-08-06T07:45:37.602Z,2.73
2017-08-06T07:48:03.520Z,3.00
2017-08-06T07:50:29.412Z,3.13
2017-08-06T07:52:55.342Z,3.00
2017-08-06T07:55:21.227Z,2.83
2017-08-06T07:57:47.120Z,2.27
2017-08-06T08:00:13.024Z,3.37
2017-08-06T08:02:38.889Z,2.87
2017-08-06T08:05:04.807Z,2.93
2017-08-06T08:07:30.651Z,2.57
2017-08-06T08:09:56.507Z,2.40
2017-08-06T08:12:22.393Z,2.80
2017-08-06T08:14:48.477Z,2.33
2017-08-06T08:17:14.366Z,2.40
2017-08-06T08:19:40.217Z,2.37
2017-08-06T08:22:06.197Z,2.27
2017-08-06T08:24:32.089Z,2.30
2017-08-06T08:26:57.948Z,2.83
2017-08-06T08:29:23.859Z,3.30
2017-08-06T08:31:49.711Z,2.43
2017-08-06T08:34:15.632Z,2.57
2017-08-06T08:36:41.502Z,2.43
2017-08-06T08:39:07.421Z,2.57
2017-08-06T08:41:33.287Z,2.40
2017-08-06T08:43:59.308Z,2.40
2017-08-06T08:46:25.187Z,2.40
2017-08-06T08:48:51.091Z,3.00
2017-08-06T08:51:16.969Z,2.37
2017-08-06T08:53:42.835Z,2.43
2017-08-06T08:56:08.685Z,2.20
2017-08-06T08:58:34.560Z,2.17
2017-08-06T09:01:00.440Z,1.80
2017-08-06T09:03:26.323Z,1.83
2017-08-06T09:05:52.249Z,2.40
2017-08-06T09:08:18.158Z,1.50
2017-08-06T09:10:44.933Z,1.63
2017-08-06T09:13:10.850Z,2.23
2017-08-06T09:15:36.716Z,2.20
2017-08-06T09:18:02.640Z,1.97
2017-08-06T09:20:28.528Z,1.90
2017-08-06T09:22:54.453Z,2.17
2017-08-06T09:25:20.347Z,1.70
2017-08-06T09:27:46.794Z,2.53
2017-08-06T09:30:12.652Z,2.10
2017-08-06T09:32:38.572Z,1.87
2017-08-06T09:35:04.884Z,1.87
2017-08-06T09:37:30.747Z,1.90
2017-08-06T09:39:56.685Z,2.33
2017-08-06T09:42:22.526Z,2.17
2017-08-06T09:44:48.915Z,1.50
2017-08-06T09:47:14.793Z,1.77
2017-08-06T09:49:40.706Z,1.67
2017-08-06T09:52:06.555Z,1.90
2017-08-06T09:54:32.481Z,1.50
2017-08-06T09:56:58.341Z,1.80
2017-08-06T09:59:24.184Z,1.87
2017-08-06T10:01:50.078Z,1.70
2017-08-06T10:04:15.959Z,1.87
2017-08-06T10:06:41.842Z,2.40
2017-08-06T10:09:07.747Z,1.80
2017-08-06T10:11:33.747Z,2.00
2017-08-06T10:13:59.622Z,1.70
2017-08-06T10:16:25.561Z,2.00
2017-08-06T10:18:51.444Z,1.70
2017-08-06T10:21:17.327Z,1.90
2017-08-06T10:23:43.301Z,1.87
2017-08-06T10:26:09.162Z,1.90
2017-08-06T10:28:35.037Z,1.70
2017-08-06T10:31:00.962Z,2.03
2017-08-06T10:33:26.847Z,1.83
2017-08-06T10:35:52.704Z,1.60
2017-08-06T10:38:18.635Z,1.80
2017-08-06T10:40:44.506Z,1.80
2017-08-06T10:43:10.413Z,1.73
2017-08-06T10:45:36.336Z,1.73
2017-08-06T10:48:02.284Z,1.70
2017-08-06T10:50:28.202Z,1.70
2017-08-06T10:52:54.126Z,1.90
2017-08-06T10:55:20.122Z,1.77
2017-08-06T10:57:46.090Z,2.10
2017-08-06T11:00:11.965Z,2.00
2017-08-06T11:02:37.882Z,1.90
2017-08-06T11:05:03.763Z,1.60
2017-08-06T11:07:29.666Z,1.80
2017-08-06T11:09:55.563Z,1.50
2017-08-06T11:12:21.424Z,1.60
2017-08-06T11:14:47.537Z,1.70
2017-08-06T11:17:13.472Z,1.90
2017-08-06T11:19:39.385Z,1.80
2017-08-06T11:22:05.337Z,1.73
2017-08-06T11:24:31.237Z,1.40
2017-08-06T11:26:57.568Z,1.67
2017-08-06T11:29:23.480Z,1.60
2017-08-06T11:31:49.363Z,1.50
2017-08-06T11:34:15.224Z,1.50
2017-08-06T11:36:41.118Z,2.00
2017-08-06T11:39:06.988Z,1.43
2017-08-06T11:41:32.911Z,1.50
2017-08-06T11:43:58.751Z,1.57
2017-08-06T11:46:24.595Z,1.43
2017-08-06T11:48:50.474Z,1.40
2017-08-06T11:51:16.349Z,1.57
2017-08-06T11:53:42.238Z,1.80
2017-08-06T11:56:08.091Z,1.40
2017-08-06T11:58:33.968Z,1.50
2017-08-06T12:00:59.814Z,1.97
2017-08-06T12:03:25.698Z,1.43
2017-08-06T12:05:51.575Z,1.43
2017-08-06T12:08:17.464Z,1.57
2017-08-06T12:10:43.306Z,2.60
2017-08-06T12:13:09.204Z,1.67
2017-08-06T12:15:35.077Z,1.27
2017-08-06T12:18:00.919Z,1.50
2017-08-06T12:20:26.862Z,1.50
2017-08-06T12:22:52.727Z,1.60
2017-08-06T12:25:18.610Z,1.33
2017-08-06T12:27:46.708Z,1.30
2017-08-06T12:30:12.804Z,1.30
2017-08-06T12:32:39.004Z,1.50
2017-08-06T12:35:04.884Z,1.60
2017-08-06T12:37:30.797Z,1.40
2017-08-06T12:39:56.679Z,1.40
2017-08-06T12:42:22.549Z,1.60
2017-08-06T12:44:48.404Z,1.60
2017-08-06T12:47:14.336Z,1.10
2017-08-06T12:49:40.206Z,1.43
2017-08-06T12:52:06.125Z,1.43
2017-08-06T12:54:31.990Z,1.40
2017-08-06T12:56:57.856Z,1.43
2017-08-06T12:59:23.745Z,1.40
2017-08-06T13:01:49.589Z,1.37
2017-08-06T13:04:15.462Z,1.20
2017-08-06T13:06:41.702Z,1.30
2017-08-06T13:09:07.876Z,1.40
2017-08-06T13:11:33.850Z,1.40
2017-08-06T13:13:59.701Z,1.30
2017-08-06T13:16:25.582Z,1.30
2017-08-06T13:18:51.486Z,1.60
2017-08-06T13:21:17.331Z,1.30
2017-08-06T13:23:43.249Z,2.23
2017-08-06T13:26:09.138Z,1.30
2017-08-06T13:28:35.064Z,1.47
2017-08-06T13:31:00.949Z,1.30
2017-08-06T13:33:26.797Z,1.53
2017-08-06T13:35:52.685Z,1.50
2017-08-06T13:38:18.547Z,1.53
2017-08-06T13:40:44.422Z,1.27
2017-08-06T13:43:10.432Z,1.30
2017-08-06T13:45:36.356Z,1.30
2017-08-06T13:48:02.221Z,1.93
2017-08-06T13:50:28.170Z,1.40
2017-08-06T13:52:54.035Z,1.60
2017-08-06T13:55:19.956Z,1.40
2017-08-06T13:57:45.840Z,1.37
2017-08-06T14:00:11.724Z,1.40
2017-08-06T14:02:37.704Z,1.30
2017-08-06T14:05:03.586Z,1.20
2017-08-06T14:07:29.444Z,1.10
2017-08-06T14:09:55.379Z,1.57
2017-08-06T14:12:21.304Z,1.40
2017-08-06T14:14:47.228Z,1.20
2017-08-06T14:17:13.110Z,1.33
2017-08-06T14:19:38.964Z,1.40
2017-08-06T14:22:04.831Z,1.30
2017-08-06T14:24:30.749Z,1.40
2017-08-06T14:26:56.662Z,1.33
2017-08-06T14:29:22.574Z,1.30
2017-08-06T14:31:48.503Z,1.40
2017-08-06T14:34:14.450Z,1.37
2017-08-06T14:36:40.461Z,1.30
2017-08-06T14:39:06.415Z,1.30
2017-08-06T14:41:32.306Z,1.43
2017-08-06T14:43:58.284Z,1.30
2017-08-06T14:46:24.188Z,1.33
2017-08-06T14:48:50.148Z,2.37
2017-08-06T14:51:16.186Z,1.50
2017-08-06T14:53:42.091Z,1.43
2017-08-06T14:56:07.937Z,1.40
2017-08-06T14:58:33.884Z,1.50
2017-08-06T15:00:59.802Z,1.50
2017-08-06T15:03:25.702Z,1.50
2017-08-06T15:05:51.625Z,1.40
2017-08-06T15:08:17.504Z,1.13
2017-08-06T15:10:43.445Z,1.53
2017-08-06T15:13:09.342Z,2.40
2017-08-06T15:15:35.262Z,1.40
2017-08-06T15:18:01.165Z,1.43
2017-08-06T15:20:27.043Z,1.40
2017-08-06T15:22:52.937Z,1.30
2017-08-06T15:25:18.884Z,1.13
2017-08-06T15:27:44.803Z,1.53
2017-08-06T15:30:10.690Z,1.20
2017-08-06T15:32:36.614Z,1.43
2017-08-06T15:35:02.550Z,1.20
2017-08-06T15:37:28.474Z,1.50
2017-08-06T15:39:54.411Z,1.43
2017-08-06T15:42:20.327Z,1.97
2017-08-06T15:44:46.236Z,1.43
2017-08-06T15:47:13.819Z,1.43
2017-08-06T15:49:39.734Z,1.60
2017-08-06T15:52:05.644Z,1.33
2017-08-06T15:54:31.528Z,1.50
2017-08-06T15:56:57.440Z,1.40
2017-08-06T15:59:23.283Z,1.40
2017-08-06T16:01:49.154Z,1.30
2017-08-06T16:04:15.018Z,1.20
2017-08-06T16:06:41.366Z,1.83
2017-08-06T16:09:07.230Z,1.60
2017-08-06T16:11:40.942Z,1.50
2017-08-06T16:14:07.103Z,1.60
2017-08-06T16:16:32.988Z,1.30
2017-08-06T16:18:58.929Z,1.50
2017-08-06T16:21:24.778Z,1.70
2017-08-06T16:23:51.476Z,1.37
2017-08-06T16:26:17.343Z,1.60
2017-08-06T16:28:43.217Z,1.30
2017-08-06T16:31:09.077Z,1.40
2017-08-06T16:33:35.097Z,1.43
2017-08-06T16:36:00.952Z,1.60
2017-08-06T16:38:26.861Z,1.40
2017-08-06T16:40:52.725Z,1.60
2017-08-06T16:43:18.615Z,1.57
2017-08-06T16:45:44.499Z,1.40
2017-08-06T16:48:10.378Z,2.17
2017-08-06T16:50:36.372Z,2.10
2017-08-06T16:53:02.223Z,1.60
2017-08-06T16:55:28.146Z,1.47
2017-08-06T16:57:53.986Z,1.40
2017-08-06T17:00:19.882Z,1.40
2017-08-06T17:02:45.745Z,1.50
2017-08-06T17:05:11.618Z,1.33
2017-08-06T17:07:37.471Z,1.37
2017-08-06T17:10:03.367Z,1.50
2017-08-06T17:12:29.249Z,1.57
2017-08-06T17:14:55.107Z,1.80
2017-08-06T17:17:21.028Z,2.47
2017-08-06T17:19:47.014Z,2.03
2017-08-06T17:22:13.037Z,1.90
2017-08-06T17:24:38.921Z,1.30
2017-08-06T17:27:04.881Z,1.63
2017-08-06T17:29:30.764Z,1.50
2017-08-06T17:31:56.781Z,1.60
2017-08-06T17:34:30.147Z,1.90
2017-08-06T17:36:59.656Z,1.80
2017-08-06T17:39:26.039Z,1.53
2017-08-06T17:41:51.998Z,1.90
2017-08-06T17:44:18.037Z,2.90
2017-08-06T17:46:43.915Z,2.10
2017-08-06T17:49:09.805Z,4.60
2017-08-06T17:51:35.776Z,3.03
2017-08-06T17:54:01.680Z,1.60
2017-08-06T17:56:28.582Z,2.10
2017-08-06T17:58:54.477Z,1.73
2017-08-06T18:01:20.393Z,1.60
2017-08-06T18:03:46.319Z,1.93
2017-08-06T18:06:12.277Z,1.40
2017-08-06T18:08:38.182Z,2.10
2017-08-06T18:11:04.060Z,2.10
2017-08-06T18:13:29.933Z,1.87
2017-08-06T18:15:55.854Z,1.63
2017-08-06T18:18:22.355Z,1.90
2017-08-06T18:20:48.275Z,1.60
2017-08-06T18:23:14.137Z,1.43
2017-08-06T18:25:40.081Z,1.70
2017-08-06T18:28:05.991Z,1.90
2017-08-06T18:30:31.905Z,1.93
2017-08-06T18:32:57.835Z,1.90
2017-08-06T18:35:23.704Z,2.90
2017-08-06T18:37:49.618Z,2.30
2017-08-06T18:40:15.539Z,2.43
2017-08-06T18:42:41.421Z,2.20
2017-08-06T18:45:07.411Z,1.70
2017-08-06T18:47:33.322Z,2.27
2017-08-06T18:49:59.220Z,1.80
2017-08-06T18:52:25.139Z,2.00
2017-08-06T18:54:51.111Z,2.03
2017-08-06T18:57:17.825Z,2.00
2017-08-06T18:59:43.720Z,2.00
2017-08-06T19:02:09.601Z,2.20
2017-08-06T19:04:35.505Z,2.10
2017-08-06T19:07:01.410Z,1.90
2017-08-06T19:09:27.307Z,2.00
2017-08-06T19:11:54.043Z,2.33
2017-08-06T19:14:20.086Z,2.03
2017-08-06T19:16:46.040Z,2.23
2017-08-06T19:19:11.908Z,2.20
2017-08-06T19:21:37.799Z,2.30
2017-08-06T19:24:03.683Z,2.03
2017-08-06T19:26:29.582Z,1.80
2017-08-06T19:28:55.465Z,1.77
2017-08-06T19:31:21.336Z,1.73
2017-08-06T19:33:47.941Z,1.90
2017-08-06T19:36:13.863Z,1.50
2017-08-06T19:38:39.810Z,2.30
2017-08-06T19:41:05.701Z,1.70
2017-08-06T19:43:32.002Z,2.00
2017-08-06T19:45:57.903Z,1.47
2017-08-06T19:48:23.821Z,1.80
2017-08-06T19:50:49.754Z,2.20
2017-08-06T19:53:15.652Z,2.00
2017-08-06T19:55:41.580Z,2.20
2017-08-06T19:58:07.486Z,2.20
2017-08-06T20:00:33.410Z,2.10
2017-08-06T20:02:59.296Z,2.50
2017-08-06T20:05:25.185Z,1.80
2017-08-06T20:07:51.073Z,2.50
2017-08-06T20:10:17.016Z,2.20
2017-08-06T20:12:42.896Z,2.13
2017-08-06T20:15:08.766Z,2.00
2017-08-06T20:17:34.633Z,1.90
2017-08-06T20:20:00.511Z,2.10
2017-08-06T20:22:26.388Z,2.10
2017-08-06T20:24:52.336Z,1.60
2017-08-06T20:27:18.269Z,1.87
2017-08-06T20:29:44.193Z,1.87
2017-08-06T20:32:10.082Z,1.90
2017-08-06T20:34:35.956Z,1.70
2017-08-06T20:37:01.888Z,1.70
2017-08-06T20:39:27.799Z,1.60
2017-08-06T20:41:53.684Z,2.50
2017-08-06T20:44:19.550Z,1.90
2017-08-06T20:46:45.475Z,2.00
2017-08-06T20:49:11.402Z,1.90
2017-08-06T20:51:37.307Z,1.93
2017-08-06T20:54:03.198Z,1.77
2017-08-06T20:56:29.055Z,2.10
2017-08-06T20:58:55.049Z,1.83
2017-08-06T21:01:20.983Z,2.20
2017-08-06T21:03:47.718Z,1.90
2017-08-06T21:06:13.661Z,2.13
2017-08-06T21:08:39.540Z,2.40
2017-08-06T21:11:05.426Z,2.13
2017-08-06T21:13:31.455Z,1.97
2017-08-06T21:15:57.439Z,2.00
2017-08-06T21:18:23.324Z,2.00
2017-08-06T21:20:49.191Z,2.50
2017-08-06T21:23:15.089Z,2.30
2017-08-06T21:25:40.949Z,1.90
2017-08-06T21:28:06.824Z,2.20
2017-08-06T21:30:32.685Z,1.80
2017-08-06T21:32:58.599Z,1.60
2017-08-06T21:35:24.444Z,1.70
2017-08-06T21:37:50.335Z,1.87
2017-08-06T21:40:16.230Z,2.27
2017-08-06T21:42:42.142Z,2.20
2017-08-06T21:45:07.995Z,1.83
2017-08-06T21:47:33.893Z,1.53
2017-08-06T21:49:59.743Z,1.90
2017-08-06T21:52:25.620Z,1.83
2017-08-06T21:54:51.690Z,2.10
2017-08-06T21:57:17.574Z,2.20
2017-08-06T21:59:43.481Z,1.90
2017-08-06T22:02:09.478Z,2.10
2017-08-06T22:04:35.401Z,2.13
2017-08-06T22:07:01.276Z,2.13
2017-08-06T22:09:27.581Z,1.70
2017-08-06T22:11:53.443Z,2.10
2017-08-06T22:14:19.317Z,1.90
2017-08-06T22:16:45.210Z,2.00
2017-08-06T22:19:11.084Z,2.07
2017-08-06T22:21:36.955Z,2.20
2017-08-06T22:24:02.799Z,2.27
2017-08-06T22:26:28.657Z,1.93
2017-08-06T22:28:54.493Z,2.23
2017-08-06T22:31:20.429Z,1.90
2017-08-06T22:33:46.293Z,2.00
2017-08-06T22:36:12.165Z,2.20
2017-08-06T22:38:38.019Z,2.00
2017-08-06T22:41:03.874Z,2.40
2017-08-06T22:43:29.759Z,2.20
2017-08-06T22:45:55.636Z,2.07
2017-08-06T22:48:21.750Z,2.40
2017-08-06T22:50:47.690Z,1.87
2017-08-06T22:53:13.625Z,2.37
2017-08-06T22:55:39.532Z,2.50
2017-08-06T22:58:05.387Z,3.07
2017-08-06T23:00:31.247Z,1.90
2017-08-06T23:02:57.095Z,2.20
2017-08-06T23:05:22.969Z,2.30
2017-08-06T23:07:48.798Z,2.37
2017-08-06T23:10:14.849Z,2.20
2017-08-06T23:12:40.708Z,2.63
2017-08-06T23:15:06.556Z,2.60
2017-08-06T23:17:32.465Z,2.13
2017-08-06T23:19:58.374Z,2.17
2017-08-06T23:22:24.272Z,2.67
2017-08-06T23:24:50.126Z,2.70
2017-08-06T23:27:16.027Z,2.50
2017-08-06T23:29:41.946Z,2.60
2017-08-06T23:32:07.972Z,2.00
2017-08-06T23:34:33.857Z,1.80
2017-08-06T23:36:59.716Z,2.13
2017-08-06T23:39:25.617Z,2.23
2017-08-06T23:41:51.509Z,2.37
2017-08-06T23:44:17.380Z,2.40
2017-08-06T23:46:43.207Z,2.10
2017-08-06T23:49:09.121Z,2.30
2017-08-06T23:51:35.011Z,2.20
2017-08-06T23:54:00.920Z,2.30
2017-08-06T23:56:26.760Z,2.37
2017-08-06T23:58:52.623Z,2.00
